Time;durP1;ratioP1;P1;durP2;ratioP2;P2;SDS_P1;SDS_P2;PMS_P1;PMS_P2;Temp;Humidity;BMP_temperature;BMP_pressure;BME280_temperature;BME280_humidity;BME280_pressure;Samples;Min_cycle;Max_cycle;Signal;HPM_P1;HPM_P2
2022/05/27 00:01:15;;;;;;;6.60;2.30;;;;;;;15.73;56.11;100082.19;1628603;88;25663;-70
2022/05/27 00:03:41;;;;;;;7.75;2.50;;;;;;;15.71;56.20;100086.62;1628550;88;27371;-71
2022/05/27 00:06:08;;;;;;;7.72;2.55;;;;;;;15.68;56.21;100085.40;1628490;88;33105;-71
2022/05/27 00:08:34;;;;;;;7.55;2.35;;;;;;;15.65;56.22;100088.81;1628590;88;25600;-71
2022/05/27 00:11:02;;;;;;;5.03;2.40;;;;;;;15.63;56.27;100087.56;1628482;88;25631;-70
2022/05/27 00:13:30;;;;;;;10.08;2.90;;;;;;;15.61;56.41;100081.67;1628604;88;25596;-71
2022/05/27 00:15:57;;;;;;;3.87;2.50;;;;;;;15.59;56.48;100077.14;1628593;88;27650;-73
2022/05/27 00:18:23;;;;;;;6.58;2.85;;;;;;;15.57;56.58;100082.16;1628565;88;25737;-72
2022/05/27 00:20:49;;;;;;;3.85;2.75;;;;;;;15.55;56.63;100078.41;1628631;88;25638;-72
2022/05/27 00:23:18;;;;;;;5.28;2.67;;;;;;;15.53;56.69;100079.34;1628588;88;25672;-72
2022/05/27 00:25:44;;;;;;;6.03;2.75;;;;;;;15.51;56.78;100076.17;1628604;88;25462;-72
2022/05/27 00:28:10;;;;;;;7.78;2.62;;;;;;;15.49;56.92;100070.25;1628562;88;28043;-72
2022/05/27 00:30:37;;;;;;;7.10;3.30;;;;;;;15.46;56.92;100073.12;1628466;88;25754;-71
2022/05/27 00:33:05;;;;;;;7.35;2.80;;;;;;;15.45;56.98;100070.16;1628547;88;25466;-72
2022/05/27 00:35:32;;;;;;;6.72;2.83;;;;;;;15.45;57.03;100065.28;1628542;88;25681;-71
2022/05/27 00:37:58;;;;;;;6.80;2.95;;;;;;;15.44;57.03;100057.69;1628571;88;25492;-72
2022/05/27 00:40:26;;;;;;;5.40;2.37;;;;;;;15.44;57.13;100060.96;1628577;88;27401;-71
2022/05/27 00:42:52;;;;;;;4.58;2.65;;;;;;;15.43;57.00;100058.03;1627327;88;25664;-72
2022/05/27 00:45:25;;;;;;;9.15;2.90;;;;;;;15.41;57.00;100052.92;1626994;87;25566;-73
2022/05/27 00:47:55;;;;;;;5.80;2.95;;;;;;;15.39;56.92;100051.13;1650850;86;25729;-72
2022/05/27 00:50:27;;;;;;;8.43;3.10;;;;;;;15.39;56.94;100056.58;1651262;86;25467;-73
2022/05/27 00:52:55;;;;;;;8.70;3.17;;;;;;;15.40;56.96;100058.72;1651262;86;27294;-71
2022/05/27 00:55:26;;;;;;;4.62;2.77;;;;;;;15.39;57.02;100052.48;1651155;86;25707;-71
2022/05/27 00:58:10;;;;;;;4.67;2.67;;;;;;;15.37;57.15;100050.66;1636642;85;25493;-74
2022/05/27 01:00:37;;;;;;;6.25;2.85;;;;;;;15.35;57.36;100049.43;1672881;85;25724;-71
2022/05/27 01:03:04;;;;;;;2.83;2.50;;;;;;;15.31;57.64;100042.52;1667827;85;25626;-71
2022/05/27 01:05:30;;;;;;;7.95;2.47;;;;;;;15.28;57.87;100043.99;1645321;87;27386;-70
2022/05/27 01:08:02;;;;;;;6.35;3.08;;;;;;;15.28;57.89;100048.08;1674014;85;33589;-70
2022/05/27 01:10:33;;;;;;;3.92;2.80;;;;;;;15.26;58.00;100041.41;1667763;85;25640;-71
2022/05/27 01:13:13;;;;;;;5.25;3.02;;;;;;;15.26;58.28;100042.19;1645313;87;26279;-71
2022/05/27 01:16:21;;;;;;;5.90;3.58;;;;;;;15.25;58.33;100050.13;1673640;85;25576;-71
2022/05/27 01:22:16;;;;;;;8.00;3.10;;;;;;;15.23;58.50;100042.88;1653783;86;25456;-72
2022/05/27 01:24:53;;;;;;;4.73;3.00;;;;;;;15.21;58.60;100038.35;1696177;84;25626;-73
2022/05/27 01:27:42;;;;;;;6.97;2.90;;;;;;;15.20;58.76;100042.20;1695832;84;25711;-72
2022/05/27 01:30:46;;;;;;;5.75;2.90;;;;;;;15.20;58.70;100038.70;1695853;84;25613;-70
2022/05/27 01:33:29;;;;;;;7.92;2.85;;;;;;;15.20;58.78;100036.75;1695799;84;28083;-71
2022/05/27 01:36:54;;;;;;;4.95;3.22;;;;;;;15.18;58.75;100029.50;1695872;84;25832;-71
2022/05/27 01:39:29;;;;;;;5.45;2.50;;;;;;;15.17;58.74;100019.77;1695854;84;25495;-72
2022/05/27 01:42:00;;;;;;;4.83;3.08;;;;;;;15.17;58.80;100024.40;1695703;83;26395;-70
2022/05/27 01:44:41;;;;;;;9.33;3.08;;;;;;;15.16;58.81;100017.38;1695955;84;25455;-69
2022/05/27 01:47:12;;;;;;;7.03;2.77;;;;;;;15.15;58.80;100013.06;1695644;84;27543;-71
2022/05/27 01:49:47;;;;;;;7.75;3.08;;;;;;;15.14;58.80;100008.19;1695673;84;25574;-71
2022/05/27 01:52:28;;;;;;;4.58;2.87;;;;;;;15.13;58.84;100006.02;1695866;84;25669;-71
2022/05/27 01:55:19;;;;;;;6.33;3.17;;;;;;;15.14;58.92;100002.74;1695774;84;25799;-70
2022/05/27 01:57:53;;;;;;;4.53;2.72;;;;;;;15.13;58.94;99983.44;1695947;84;25596;-70
2022/05/27 02:00:24;;;;;;;7.20;2.80;;;;;;;15.12;58.81;99970.40;1695144;83;27927;-71
2022/05/27 02:03:08;;;;;;;5.25;2.60;;;;;;;15.11;58.78;99970.16;1695743;84;25487;-71
2022/05/27 02:05:48;;;;;;;6.78;2.83;;;;;;;15.09;58.79;99964.28;1695951;84;25578;-70
2022/05/27 02:08:19;;;;;;;6.22;2.70;;;;;;;15.10;58.94;99967.23;1695733;84;25651;-70
2022/05/27 02:11:03;;;;;;;5.83;2.67;;;;;;;15.10;58.79;99965.88;1695800;84;25598;-70
2022/05/27 02:14:02;;;;;;;3.85;2.75;;;;;;;15.11;58.84;99964.72;1695846;84;27535;-70
2022/05/27 02:16:43;;;;;;;6.35;2.70;;;;;;;15.10;58.79;99964.51;1695947;84;25449;-70
2022/05/27 02:19:23;;;;;;;6.90;2.65;;;;;;;15.10;58.77;99964.51;1695770;84;25530;-71
2022/05/27 02:22:09;;;;;;;3.50;2.35;;;;;;;15.10;58.70;99966.42;1695736;84;26298;-70
2022/05/27 02:24:50;;;;;;;10.28;2.80;;;;;;;15.07;58.79;99971.23;1694798;84;25490;-72
2022/05/27 02:27:37;;;;;;;5.90;2.85;;;;;;;15.06;58.96;99970.41;1695662;84;27295;-72
2022/05/27 02:30:08;;;;;;;4.12;2.62;;;;;;;15.05;59.02;99971.57;1695748;84;25861;-72
2022/05/27 02:32:39;;;;;;;4.92;2.87;;;;;;;14.99;59.14;99948.44;1695818;84;25421;-70
2022/05/27 02:35:22;;;;;;;5.58;3.00;;;;;;;15.03;59.23;99958.84;1695841;84;25799;-70
2022/05/27 02:37:53;;;;;;;6.05;3.52;;;;;;;15.03;59.39;99960.20;1695777;84;25639;-70
2022/05/27 02:40:24;;;;;;;6.58;3.08;;;;;;;15.01;59.60;99953.53;1695872;84;27401;-71
2022/05/27 02:43:12;;;;;;;6.05;2.90;;;;;;;14.99;59.66;99953.09;1673627;85;25484;-70
2022/05/27 02:46:04;;;;;;;6.75;3.67;;;;;;;14.97;59.67;99946.63;1674212;85;25423;-72
2022/05/27 02:48:45;;;;;;;5.15;3.33;;;;;;;14.97;59.95;99941.77;1667745;85;25494;-70
2022/05/27 02:51:54;;;;;;;7.42;3.22;;;;;;;14.94;60.03;99941.88;1644854;87;25466;-71
2022/05/27 02:54:43;;;;;;;3.75;3.40;;;;;;;14.93;60.28;99945.17;1674003;85;27390;-72
2022/05/27 02:57:23;;;;;;;11.03;3.40;;;;;;;14.91;60.53;99939.84;1667910;85;25581;-70
2022/05/27 02:59:52;;;;;;;7.00;3.67;;;;;;;14.88;60.78;99933.17;1673938;85;25604;-71
2022/05/27 03:02:19;;;;;;;5.28;3.85;;;;;;;14.86;60.97;99933.28;1674263;85;25762;-71
2022/05/27 03:04:55;;;;;;;6.78;4.03;;;;;;;14.82;61.02;99930.45;1667823;86;25579;-71
2022/05/27 03:07:47;;;;;;;6.42;3.80;;;;;;;14.81;61.29;99932.16;1653769;86;27356;-71
2022/05/27 03:13:41;;;;;;;6.37;4.35;;;;;;;14.77;61.73;99933.42;1604032;89;25543;-70
2022/05/27 03:16:25;;;;;;;6.80;4.08;;;;;;;14.74;61.96;99924.03;1604125;89;25607;-70
2022/05/27 03:19:31;;;;;;;6.60;4.70;;;;;;;14.74;62.22;99925.95;1520628;94;25842;-73
2022/05/27 03:22:20;;;;;;;5.00;3.67;;;;;;;14.72;62.13;99932.31;1496897;95;27356;-71
2022/05/27 03:25:39;;;;;;;8.65;3.90;;;;;;;14.69;62.59;99922.92;1520657;94;25487;-71
2022/05/27 03:28:22;;;;;;;7.67;4.45;;;;;;;14.65;62.74;99911.13;1520801;94;25518;-72
2022/05/27 03:30:56;;;;;;;7.05;4.28;;;;;;;14.63;62.99;99915.34;1520598;94;25630;-72
2022/05/27 03:33:40;;;;;;;5.75;4.10;;;;;;;14.59;63.34;99909.77;1520694;94;25748;-73
2022/05/27 03:36:29;;;;;;;6.95;3.98;;;;;;;14.57;63.50;99913.38;1520351;94;27365;-72
2022/05/27 03:39:04;;;;;;;8.48;4.35;;;;;;;14.54;63.61;99896.38;1520553;94;25507;-73
2022/05/27 03:41:41;;;;;;;6.05;4.58;;;;;;;14.52;63.91;99894.58;1520643;93;25659;-73
2022/05/27 03:44:11;;;;;;;4.10;3.70;;;;;;;14.51;64.06;99892.43;1520309;93;25685;-71
2022/05/27 03:46:39;;;;;;;9.93;4.35;;;;;;;14.50;64.23;99887.33;1520474;93;25551;-72
2022/05/27 03:49:06;;;;;;;5.40;3.85;;;;;;;14.48;64.34;99887.67;1529642;91;28015;-70
2022/05/27 03:51:40;;;;;;;7.33;4.60;;;;;;;14.49;64.50;99883.02;1569186;91;25787;-72
2022/05/27 03:54:10;;;;;;;7.00;4.17;;;;;;;14.49;64.74;99883.02;1568875;91;25638;-71
2022/05/27 03:56:40;;;;;;;7.92;4.70;;;;;;;14.47;64.78;99877.13;1594488;88;26359;-71
2022/05/27 03:59:11;;;;;;;6.60;3.80;;;;;;;14.46;65.08;99871.48;1656885;86;25671;-71
2022/05/27 04:01:42;;;;;;;7.40;4.58;;;;;;;14.46;65.45;99879.64;1656905;86;28132;-71
2022/05/27 04:04:14;;;;;;;8.80;4.85;;;;;;;14.45;65.82;99867.16;1656722;86;25642;-71
2022/05/27 04:06:40;;;;;;;7.05;4.85;;;;;;;14.43;66.37;99866.72;1657003;86;25453;-71
2022/05/27 04:09:07;;;;;;;8.40;5.00;;;;;;;14.37;66.62;99878.42;1656813;86;26573;-70
2022/05/27 04:11:35;;;;;;;7.80;4.67;;;;;;;14.33;66.83;99863.91;1660990;83;25501;-71
2022/05/27 04:14:01;;;;;;;6.85;5.08;;;;;;;14.29;67.17;99873.33;1678383;85;27448;-71
2022/05/27 04:16:28;;;;;;;7.78;4.53;;;;;;;14.26;67.74;99865.85;1675671;85;25662;-72
2022/05/27 04:18:54;;;;;;;10.82;4.90;;;;;;;14.19;68.24;99864.29;1675775;85;25564;-72
2022/05/27 04:21:20;;;;;;;5.30;4.72;;;;;;;14.14;68.63;99861.23;1675841;85;25773;-72
2022/05/27 04:23:47;;;;;;;9.20;5.10;;;;;;;14.10;69.23;99860.92;1675873;85;25551;-72
2022/05/27 04:26:13;;;;;;;9.03;5.67;;;;;;;14.06;69.36;99860.79;1676017;85;27381;-72
2022/05/27 04:28:39;;;;;;;7.40;4.85;;;;;;;14.04;70.17;99863.64;1676226;85;25460;-71
2022/05/27 04:31:06;;;;;;;6.72;5.33;;;;;;;13.99;70.62;99863.30;1676358;85;25418;-71
2022/05/27 04:33:32;;;;;;;11.43;6.40;;;;;;;13.93;71.25;99863.33;1676346;85;26290;-71
2022/05/27 04:36:01;;;;;;;10.25;6.12;;;;;;;13.90;71.35;99858.56;1676559;85;25619;-71
2022/05/27 04:38:28;;;;;;;9.48;6.45;;;;;;;13.88;71.60;99854.83;1676774;85;27187;-71
2022/05/27 04:40:54;;;;;;;10.65;6.05;;;;;;;13.87;71.83;99855.95;1676477;85;25639;-71
2022/05/27 04:43:21;;;;;;;13.95;6.60;;;;;;;13.87;72.36;99855.95;1677025;85;25571;-70
2022/05/27 04:45:48;;;;;;;11.63;6.55;;;;;;;13.87;72.81;99856.52;1675862;85;25654;-71
2022/05/27 04:48:18;;;;;;;11.08;7.30;;;;;;;13.86;72.81;99854.38;1675929;85;25644;-71
2022/05/27 04:50:45;;;;;;;12.03;6.70;;;;;;;13.85;73.58;99860.94;1675858;85;27318;-72
2022/05/27 04:53:12;;;;;;;14.13;7.22;;;;;;;13.84;73.52;99859.34;1675759;85;25425;-73
2022/05/27 04:55:41;;;;;;;10.10;7.35;;;;;;;13.84;73.58;99856.63;1675872;85;25574;-71
2022/05/27 04:58:08;;;;;;;12.85;8.15;;;;;;;13.86;73.76;99861.17;1675811;85;25613;-71
2022/05/27 05:00:43;;;;;;;15.70;8.68;;;;;;;13.86;74.23;99857.64;1675981;85;25429;-71
2022/05/27 05:03:11;;;;;;;11.97;8.05;;;;;;;13.87;74.68;99852.45;1676056;85;27397;-72
2022/05/27 05:05:38;;;;;;;12.13;7.33;;;;;;;13.89;75.03;99858.33;1675985;85;25677;-70
2022/05/27 05:08:09;;;;;;;13.72;8.13;;;;;;;13.91;75.20;99857.41;1675927;85;25556;-70
2022/05/27 05:10:36;;;;;;;13.75;8.53;;;;;;;13.92;75.33;99853.58;1675849;85;25611;-70
2022/05/27 05:13:03;;;;;;;10.78;9.00;;;;;;;13.93;75.56;99853.81;1659785;84;25583;-68
2022/05/27 05:15:31;;;;;;;25.37;13.40;;;;;;;13.94;75.92;99856.73;1680717;85;27316;-70
2022/05/27 05:17:58;;;;;;;14.70;9.88;;;;;;;13.94;75.94;99856.16;1680692;85;25460;-71
2022/05/27 05:20:29;;;;;;;14.05;9.33;;;;;;;13.96;76.36;99857.18;1654089;86;25234;-70
2022/05/27 05:22:56;;;;;;;13.98;8.93;;;;;;;13.98;76.25;99857.08;1653387;86;26360;-70
2022/05/27 05:25:23;;;;;;;16.62;9.48;;;;;;;13.99;76.87;99849.70;1681897;85;25205;-70
2022/05/27 05:27:51;;;;;;;18.73;9.68;;;;;;;14.01;76.95;99846.88;1662029;85;27331;-70
2022/05/27 05:30:22;;;;;;;12.58;9.48;;;;;;;14.00;76.96;99837.70;1653804;86;25569;-71
2022/05/27 05:32:48;;;;;;;12.03;9.00;;;;;;;14.05;77.53;99844.84;1662805;85;25752;-70
2022/05/27 05:35:15;;;;;;;18.35;9.65;;;;;;;14.04;77.34;99843.25;1681585;85;25586;-69
2022/05/27 05:37:42;;;;;;;15.48;9.55;;;;;;;14.03;77.54;99836.21;1653420;86;25318;-69
2022/05/27 05:40:12;;;;;;;15.63;10.30;;;;;;;14.04;77.70;99835.09;1653565;86;27404;-69
2022/05/27 05:42:40;;;;;;;14.43;10.35;;;;;;;14.02;78.30;99834.06;1665393;86;25774;-69
2022/05/27 05:45:10;;;;;;;16.62;10.58;;;;;;;13.98;78.33;99825.81;1652461;86;25646;-69
2022/05/27 05:47:36;;;;;;;18.17;11.78;;;;;;;14.00;78.80;99826.83;1652513;86;26216;-70
2022/05/27 05:50:02;;;;;;;14.70;10.58;;;;;;;14.02;79.05;99815.03;1652526;86;25688;-69
2022/05/27 05:52:28;;;;;;;14.03;11.25;;;;;;;14.04;79.25;99815.48;1652366;86;27320;-69
2022/05/27 05:54:54;;;;;;;15.03;10.70;;;;;;;14.05;79.39;99819.80;1652329;86;33039;-69
2022/05/27 05:57:21;;;;;;;14.93;10.28;;;;;;;14.06;79.56;99818.64;1652391;86;25443;-68
2022/05/27 05:59:47;;;;;;;15.03;10.03;;;;;;;14.03;79.42;99815.27;1652345;86;25696;-69
2022/05/27 06:02:13;;;;;;;15.38;10.55;;;;;;;14.03;79.43;99817.17;1652432;86;25598;-69
2022/05/27 06:04:41;;;;;;;13.65;10.18;;;;;;;13.98;79.67;99808.13;1652264;86;27377;-69
2022/05/27 06:07:07;;;;;;;17.65;10.55;;;;;;;13.99;79.91;99807.56;1652408;86;25494;-68
2022/05/27 06:09:34;;;;;;;17.42;11.20;;;;;;;13.96;80.00;99802.80;1652353;86;25410;-69
2022/05/27 06:12:02;;;;;;;19.32;11.53;;;;;;;13.95;80.36;99803.37;1655518;85;26452;-68
2022/05/27 06:14:29;;;;;;;18.23;12.13;;;;;;;13.96;80.78;99795.45;1686869;85;25472;-69
2022/05/27 06:16:55;;;;;;;16.45;11.57;;;;;;;13.95;81.03;99789.78;1686815;85;27316;-69
2022/05/27 06:19:21;;;;;;;15.58;11.83;;;;;;;13.94;81.29;99788.77;1686772;85;33168;-69
2022/05/27 06:21:48;;;;;;;26.55;12.78;;;;;;;13.91;81.76;99790.26;1684740;83;25403;-69
2022/05/27 06:24:14;;;;;;;15.13;11.40;;;;;;;13.88;81.71;99781.42;1689401;82;26518;-69
2022/05/27 06:26:41;;;;;;;15.63;11.35;;;;;;;13.91;81.99;99782.10;1686311;85;25437;-69
2022/05/27 06:34:37;;;;;;;18.10;12.05;;;;;;;13.99;82.79;99768.13;1686310;85;25695;-69
2022/05/27 06:37:14;;;;;;;21.12;11.38;;;;;;;14.03;82.77;99769.59;1686309;85;25612;-68
2022/05/27 06:39:42;;;;;;;13.98;11.00;;;;;;;14.06;82.97;99772.98;1686360;85;26337;-68
2022/05/27 06:42:12;;;;;;;18.20;11.48;;;;;;;14.05;83.11;99760.55;1686391;85;27347;-68
2022/05/27 06:44:40;;;;;;;12.55;10.45;;;;;;;14.09;83.55;99770.37;1686159;85;25477;-68
2022/05/27 06:47:09;;;;;;;15.63;10.87;;;;;;;14.12;83.64;99763.46;1686658;85;25422;-70
2022/05/27 06:49:38;;;;;;;15.73;10.50;;;;;;;14.18;83.95;99761.52;1686513;85;25637;-70
2022/05/27 06:52:07;;;;;;;16.15;11.12;;;;;;;14.23;84.37;99765.11;1686359;85;25824;-69
2022/05/27 06:54:34;;;;;;;15.03;10.15;;;;;;;14.25;85.04;99762.28;1686439;84;27439;-69
2022/05/27 06:57:01;;;;;;;14.07;9.83;;;;;;;14.26;83.95;99761.70;1686229;84;27147;-69
2022/05/27 06:59:27;;;;;;;15.88;10.13;;;;;;;14.26;84.07;99758.41;1686379;85;25710;-70
2022/05/27 07:01:54;;;;;;;15.83;10.10;;;;;;;14.27;83.92;99751.84;1686350;85;25702;-69
2022/05/27 07:04:20;;;;;;;18.67;10.03;;;;;;;14.30;84.05;99750.34;1686328;85;25687;-69
2022/05/27 07:06:48;;;;;;;15.85;9.95;;;;;;;14.31;84.06;99754.66;1686305;85;28053;-69
2022/05/27 07:09:19;;;;;;;14.53;9.90;;;;;;;14.33;83.92;99748.29;1686269;85;25520;-70
2022/05/27 07:11:49;;;;;;;15.13;9.10;;;;;;;14.38;83.94;99746.68;1654870;86;25918;-69
2022/05/27 07:14:17;;;;;;;16.70;10.25;;;;;;;14.44;84.22;99743.13;1649647;85;25640;-69
2022/05/27 07:16:46;;;;;;;11.97;9.98;;;;;;;14.49;84.20;99736.88;1650596;86;25342;-70
2022/05/27 07:19:14;;;;;;;14.65;9.60;;;;;;;14.57;84.68;99733.21;1650656;86;27413;-69
2022/05/27 07:21:46;;;;;;;13.55;10.25;;;;;;;14.65;84.35;99731.48;1650492;86;25766;-69
2022/05/27 07:24:15;;;;;;;17.67;9.98;;;;;;;14.70;84.46;99728.50;1650672;86;25842;-69
2022/05/27 07:26:44;;;;;;;17.90;10.05;;;;;;;14.71;84.29;99723.84;1650579;86;25675;-69
2022/05/27 07:29:10;;;;;;;15.83;10.28;;;;;;;14.74;84.22;99727.22;1650847;86;25739;-70
2022/05/27 07:31:40;;;;;;;13.50;10.55;;;;;;;14.75;83.88;99736.41;1650641;86;27989;-70
2022/05/27 07:34:06;;;;;;;20.00;10.80;;;;;;;14.79;83.59;99728.91;1651179;86;25730;-69
2022/05/27 07:36:33;;;;;;;14.13;9.20;;;;;;;14.81;83.53;99730.12;1652417;86;25532;-70
2022/05/27 07:38:59;;;;;;;14.60;8.98;;;;;;;14.84;83.26;99730.00;1651780;86;25700;-69
2022/05/27 07:41:27;;;;;;;14.85;10.13;;;;;;;14.85;83.28;99724.20;1651881;86;25774;-70
2022/05/27 07:43:54;;;;;;;17.35;9.90;;;;;;;14.89;83.47;99715.55;1652972;86;27324;-70
2022/05/27 07:46:23;;;;;;;14.73;8.53;;;;;;;14.87;83.18;99711.02;1653310;86;25814;-70
2022/05/27 07:48:49;;;;;;;16.90;10.18;;;;;;;14.89;83.27;99716.91;1651547;86;25675;-70
2022/05/27 07:51:16;;;;;;;11.55;8.83;;;;;;;14.88;83.30;99722.15;1651217;86;25718;-70
2022/05/27 07:53:42;;;;;;;13.25;9.20;;;;;;;14.86;83.12;99709.44;1651311;86;25686;-70
2022/05/27 07:56:11;;;;;;;13.70;8.95;;;;;;;14.89;83.14;99707.95;1651631;86;27397;-70
2022/05/27 07:58:38;;;;;;;13.32;8.78;;;;;;;14.89;83.26;99705.23;1633095;86;25698;-70
2022/05/27 08:01:06;;;;;;;13.75;8.15;;;;;;;14.86;82.86;99710.02;1653592;86;25328;-69
2022/05/27 08:03:32;;;;;;;12.58;8.60;;;;;;;14.86;83.01;99701.84;1651752;86;25603;-70
2022/05/27 08:06:00;;;;;;;16.23;8.73;;;;;;;14.88;83.28;99707.17;1651678;86;25665;-70
2022/05/27 08:08:29;;;;;;;11.78;8.30;;;;;;;14.90;83.09;99710.91;1651943;86;27273;-69
2022/05/27 08:10:56;;;;;;;11.05;8.58;;;;;;;14.91;82.95;99707.03;1652162;86;33147;-70
2022/05/27 08:13:23;;;;;;;10.05;8.05;;;;;;;14.97;83.28;99698.04;1660518;85;25722;-70
2022/05/27 08:15:52;;;;;;;14.55;8.10;;;;;;;15.02;83.09;99692.33;1674006;85;25682;-70
2022/05/27 08:18:20;;;;;;;11.20;7.70;;;;;;;15.06;82.93;99691.83;1673258;85;25721;-70
2022/05/27 08:20:47;;;;;;;10.88;8.08;;;;;;;15.08;82.54;99689.53;1673363;85;27397;-70
2022/05/27 08:23:14;;;;;;;10.80;8.45;;;;;;;15.11;82.97;99690.97;1655546;85;25741;-70
2022/05/27 08:25:41;;;;;;;14.30;9.05;;;;;;;15.12;82.69;99678.16;1673218;85;25659;-70
2022/05/27 08:28:08;;;;;;;15.98;8.58;;;;;;;15.17;82.80;99681.97;1679785;85;25663;-71
2022/05/27 08:30:37;;;;;;;13.93;8.30;;;;;;;15.22;82.73;99669.44;1679862;85;25465;-70
2022/05/27 08:33:04;;;;;;;11.03;7.92;;;;;;;15.23;82.53;99680.54;1679682;85;27302;-70
2022/05/27 08:38:21;;;;;;;10.75;7.97;;;;;;;15.24;82.60;99686.80;1679838;85;25637;-70
2022/05/27 08:41:17;;;;;;;11.18;10.05;;;;;;;15.25;82.13;99686.41;1677872;85;25742;-69
2022/05/27 08:44:00;;;;;;;12.00;8.68;;;;;;;15.28;82.46;99687.66;1679769;85;25700;-69
2022/05/27 08:46:55;;;;;;;18.52;13.98;;;;;;;15.40;83.03;99692.98;1679632;85;28113;-69
2022/05/27 08:49:30;;;;;;;12.50;9.83;;;;;;;15.48;82.89;99685.18;1679760;85;25656;-70
2022/05/27 08:52:22;;;;;;;11.75;9.15;;;;;;;15.56;82.14;99688.05;1678706;85;25721;-72
2022/05/27 08:54:59;;;;;;;12.70;9.43;;;;;;;15.62;81.79;99690.72;1679575;85;25693;-70
2022/05/27 09:00:14;;;;;;;11.45;7.80;;;;;;;15.67;81.14;99696.67;1609390;89;29554;-69
2022/05/27 09:03:00;;;;;;;11.28;8.53;;;;;;;15.66;80.42;99692.38;1609024;89;25863;-69
2022/05/27 09:05:38;;;;;;;9.48;7.45;;;;;;;15.61;80.39;99710.38;1609246;89;25775;-70
2022/05/27 09:08:25;;;;;;;11.00;8.08;;;;;;;15.61;80.49;99709.58;1609395;89;25827;-70
2022/05/27 09:11:29;;;;;;;11.60;7.67;;;;;;;15.58;79.87;99715.73;1609555;89;25576;-70
2022/05/27 09:14:14;;;;;;;9.73;7.85;;;;;;;15.61;80.33;99700.03;1608597;89;27362;-69
2022/05/27 09:17:04;;;;;;;9.05;7.25;;;;;;;15.68;80.66;99707.80;1604905;89;25764;-69
2022/05/27 09:20:00;;;;;;;12.65;7.58;;;;;;;15.70;79.57;99700.63;1608185;89;25760;-71
2022/05/27 09:22:47;;;;;;;7.25;6.55;;;;;;;15.73;79.34;99705.34;1608296;89;25638;-70
2022/05/27 09:25:27;;;;;;;7.17;6.47;;;;;;;15.76;79.08;99713.43;1608313;89;25670;-71
2022/05/27 09:28:32;;;;;;;10.60;6.97;;;;;;;15.81;79.02;99707.11;1608227;89;28202;-71
2022/05/27 09:31:01;;;;;;;10.85;7.10;;;;;;;15.89;78.77;99708.64;1608055;89;25746;-69
2022/05/27 09:33:30;;;;;;;8.00;6.83;;;;;;;15.89;78.16;99701.82;1608493;89;25762;-70
2022/05/27 09:36:10;;;;;;;8.73;7.28;;;;;;;15.92;77.55;99695.63;1608408;89;27891;-70
2022/05/27 09:38:53;;;;;;;9.85;6.37;;;;;;;15.95;77.78;99697.64;1685452;85;25698;-69
2022/05/27 09:41:43;;;;;;;6.85;6.15;;;;;;;15.97;77.47;99680.33;1686266;85;28087;-70
2022/05/27 09:44:41;;;;;;;10.28;5.87;;;;;;;16.05;77.77;99697.84;1686023;85;25647;-70
2022/05/27 09:47:08;;;;;;;7.08;5.87;;;;;;;16.10;76.68;99708.26;1684039;85;25642;-69
2022/05/27 09:49:35;;;;;;;9.20;5.65;;;;;;;16.11;76.63;99707.91;1685984;85;26517;-69
2022/05/27 09:52:02;;;;;;;6.40;5.72;;;;;;;16.15;76.20;99719.66;1686142;85;25732;-70
2022/05/27 09:54:55;;;;;;;5.58;5.08;;;;;;;16.20;76.16;99726.19;1677660;85;29498;-69
2022/05/27 09:57:28;;;;;;;5.42;4.78;;;;;;;16.30;75.87;99729.50;1686145;85;26194;-70
2022/05/27 10:00:02;;;;;;;7.22;4.55;;;;;;;16.38;75.56;99727.13;1685827;85;25686;-70
2022/05/27 10:02:33;;;;;;;6.08;4.90;;;;;;;16.39;73.80;99728.09;1686080;85;25623;-70
2022/05/27 10:05:08;;;;;;;5.10;4.25;;;;;;;16.40;73.73;99726.18;1686162;85;25779;-70
2022/05/27 10:07:46;;;;;;;5.58;4.30;;;;;;;16.41;73.35;99729.91;1685962;85;27259;-70
2022/05/27 10:10:35;;;;;;;6.22;4.00;;;;;;;16.44;73.04;99729.17;1656802;86;25826;-70
2022/05/27 10:13:22;;;;;;;;;;;;;;;16.47;72.24;99730.40;1688681;85;25726;-71
2022/05/27 10:15:49;;;;;;;5.22;3.75;;;;;;;16.47;72.11;99733.71;1677862;85;26128;-70
2022/05/27 10:18:25;;;;;;;6.40;4.80;;;;;;;16.43;71.91;99724.88;1686173;85;25575;-70
2022/05/27 10:20:58;;;;;;;4.55;3.08;;;;;;;16.44;71.76;99731.90;1686110;85;27374;-70
2022/05/27 10:23:34;;;;;;;5.03;3.30;;;;;;;16.36;70.13;99721.22;1655996;85;25904;-70
2022/05/27 10:26:26;;;;;;;5.28;3.50;;;;;;;16.27;70.17;99739.18;1686000;85;25655;-70
2022/05/27 10:29:10;;;;;;;3.50;3.20;;;;;;;16.18;69.93;99733.95;1685901;85;25647;-71
2022/05/27 10:31:36;;;;;;;3.67;3.30;;;;;;;16.08;69.45;99710.56;1656199;86;25555;-70
2022/05/27 10:34:03;;;;;;;3.72;2.80;;;;;;;15.98;69.91;99702.38;1686030;85;27356;-69
2022/05/27 10:36:44;;;;;;;4.17;2.45;;;;;;;15.87;69.15;99696.14;1677874;85;26085;-69
2022/05/27 10:39:45;;;;;;;2.52;2.33;;;;;;;15.78;68.72;99713.30;1684929;84;25786;-70
2022/05/27 10:42:29;;;;;;;2.17;1.98;;;;;;;15.69;68.58;99703.91;1577327;90;26592;-70
2022/05/27 10:45:07;;;;;;;3.70;2.45;;;;;;;15.59;67.58;99692.79;1577197;89;25845;-70
2022/05/27 10:48:01;;;;;;;4.47;2.80;;;;;;;15.44;67.67;99662.52;1577350;90;29547;-70
2022/05/27 10:51:08;;;;;;;3.17;2.27;;;;;;;15.31;67.66;99650.95;1572599;90;25754;-71
2022/05/27 10:54:01;;;;;;;4.92;2.20;;;;;;;15.21;67.85;99648.00;1577067;90;25823;-69
2022/05/27 11:03:12;;;;;;;2.40;1.60;;;;;;;14.92;65.06;99575.20;1577267;90;27381;-71
2022/05/27 11:06:00;;;;;;;1.82;1.60;;;;;;;14.83;65.84;99580.84;1577452;90;25778;-71
2022/05/27 11:08:30;;;;;;;4.37;1.90;;;;;;;14.80;64.40;99595.73;1528634;93;25805;-71
2022/05/27 11:11:26;;;;;;;3.40;1.60;;;;;;;14.75;64.32;99597.58;1528785;93;26305;-71
2022/05/27 11:17:46;;;;;;;5.45;2.12;;;;;;;14.80;64.03;99617.52;1525520;94;28263;-72
2022/05/27 11:20:34;;;;;;;3.37;1.62;;;;;;;14.86;64.09;99612.78;1538513;93;25716;-71
2022/05/27 11:23:33;;;;;;;3.37;1.55;;;;;;;14.93;63.88;99623.86;1539524;93;26047;-71
2022/05/27 11:26:46;;;;;;;2.40;1.80;;;;;;;14.99;63.77;99596.35;1539911;93;25882;-71
2022/05/27 11:29:42;;;;;;;2.65;1.65;;;;;;;15.05;62.74;99622.95;1539620;91;25767;-70
2022/05/27 11:33:01;;;;;;;3.72;1.60;;;;;;;15.15;62.83;99623.53;1539729;93;28188;-70
2022/05/27 11:36:01;;;;;;;135.48;31.45;;;;;;;15.17;61.81;99622.05;1539832;93;27402;-70
2022/05/27 11:38:56;;;;;;;44.90;14.33;;;;;;;15.26;60.93;99604.13;1539748;93;25823;-71
2022/05/27 11:41:43;;;;;;;22.20;7.25;;;;;;;15.37;60.52;99618.75;1531766;93;25770;-72
2022/05/27 11:44:26;;;;;;;3.98;2.10;;;;;;;15.46;59.92;99616.62;1528679;93;25742;-70
2022/05/27 11:47:47;;;;;;;3.98;1.42;;;;;;;15.50;58.72;99617.47;1596969;89;27426;-71
2022/05/27 11:50:47;;;;;;;2.37;1.45;;;;;;;15.56;57.72;99613.91;1577772;90;25479;-71
2022/05/27 11:53:31;;;;;;;1.90;1.22;;;;;;;15.59;57.04;99613.75;1560929;90;25861;-70
2022/05/27 11:56:45;;;;;;;3.72;1.30;;;;;;;15.59;55.86;99639.64;1604046;89;26159;-71
2022/05/27 11:59:23;;;;;;;4.55;2.10;;;;;;;15.59;55.92;99615.89;1604504;89;25743;-71
2022/05/27 12:02:03;;;;;;;4.20;1.87;;;;;;;15.70;55.66;99631.11;1604474;89;27386;-72
2022/05/27 12:05:10;;;;;;;5.10;1.67;;;;;;;15.76;56.34;99613.33;1601608;89;25631;-71
2022/05/27 12:07:59;;;;;;;4.00;1.40;;;;;;;15.86;55.80;99601.84;1604416;89;25650;-72
2022/05/27 12:10:47;;;;;;;3.52;1.60;;;;;;;15.92;55.25;99597.45;1604581;89;25753;-71
2022/05/27 12:13:25;;;;;;;14.58;3.95;;;;;;;15.95;54.98;99617.96;1596296;89;25436;-71
2022/05/27 12:16:09;;;;;;;3.42;1.42;;;;;;;16.02;55.46;99615.95;1603649;89;27535;-71
2022/05/27 12:18:46;;;;;;;3.15;1.45;;;;;;;16.04;54.93;99595.94;1604453;89;25789;-71
2022/05/27 12:21:24;;;;;;;3.35;1.22;;;;;;;16.05;53.45;99581.91;1593860;89;25706;-70
2022/05/27 12:24:16;;;;;;;1.98;1.50;;;;;;;16.03;55.17;99586.16;1604524;89;25792;-71
2022/05/27 12:26:43;;;;;;;8.50;1.50;;;;;;;16.03;54.80;99578.77;1583536;89;26000;-70
2022/05/27 12:29:12;;;;;;;2.12;1.60;;;;;;;15.99;54.90;99566.23;1604500;89;27332;-70
2022/05/27 12:31:40;;;;;;;2.47;1.20;;;;;;;15.94;54.29;99594.59;1604526;89;25799;-72
2022/05/27 12:34:30;;;;;;;2.22;1.50;;;;;;;15.92;53.49;99581.08;1604836;89;25690;-71